createdAt,value
2022-12-11T00:00:47.988Z,36.58
2022-12-11T00:05:41.742Z,34.05
2022-12-11T00:10:38.065Z,36.65
2022-12-11T00:15:31.883Z,42.20
2022-12-11T00:20:25.675Z,40.38
2022-12-11T00:25:20.184Z,38.50
2022-12-11T00:30:15.679Z,40.78
2022-12-11T00:35:11.155Z,45.45
2022-12-11T00:40:05.685Z,41.05
2022-12-11T00:44:59.581Z,41.97
2022-12-11T00:49:53.684Z,42.17
2022-12-11T00:54:47.662Z,42.60
2022-12-11T00:59:41.987Z,42.03
2022-12-11T01:04:38.262Z,44.30
2022-12-11T01:09:49.837Z,49.45
2022-12-11T01:14:43.894Z,46.88
2022-12-11T01:19:38.355Z,47.10
2022-12-11T01:24:31.665Z,48.28
2022-12-11T01:29:25.655Z,43.05
2022-12-11T01:34:19.701Z,46.25
2022-12-11T01:39:13.710Z,42.53
2022-12-11T01:44:12.373Z,40.45
2022-12-11T01:49:08.510Z,42.88
2022-12-11T01:54:06.656Z,42.05
2022-12-11T01:59:07.609Z,43.28
2022-12-11T02:04:02.166Z,42.05
2022-12-11T02:08:56.470Z,39.53
2022-12-11T02:13:57.915Z,41.70
2022-12-11T02:18:58.138Z,40.13
2022-12-11T02:23:59.978Z,39.47
2022-12-11T02:29:04.161Z,43.67
2022-12-11T02:34:39.182Z,43.55
2022-12-11T02:39:40.848Z,47.17
2022-12-11T02:44:35.105Z,45.50
2022-12-11T02:50:08.013Z,45.20
2022-12-11T02:55:21.722Z,46.63
2022-12-11T03:00:17.755Z,42.53
2022-12-11T03:05:12.508Z,44.17
2022-12-11T03:10:08.729Z,45.97
2022-12-11T03:15:04.702Z,40.70
2022-12-11T03:20:00.702Z,36.78
2022-12-11T03:25:02.396Z,41.88
2022-12-11T03:30:02.685Z,39.30
2022-12-11T03:35:06.575Z,38.13
2022-12-11T03:40:05.337Z,40.80
2022-12-11T03:45:00.858Z,42.15
2022-12-11T03:49:55.537Z,41.42
2022-12-11T03:54:51.156Z,41.13
2022-12-11T03:59:44.375Z,39.55
2022-12-11T04:04:42.005Z,42.58
2022-12-11T04:09:35.710Z,41.40
2022-12-11T04:14:47.533Z,36.75
2022-12-11T04:19:59.616Z,36.53
2022-12-11T04:24:52.108Z,35.63
2022-12-11T04:29:45.902Z,33.42
2022-12-11T04:34:41.243Z,31.73
2022-12-11T04:39:35.505Z,35.38
2022-12-11T04:44:29.506Z,31.30
2022-12-11T04:49:23.470Z,29.15
2022-12-11T04:54:17.870Z,36.47
2022-12-11T04:59:11.856Z,35.53
2022-12-11T05:04:05.919Z,54.45
2022-12-11T05:09:00.118Z,74.55
2022-12-11T05:13:54.047Z,66.22
2022-12-11T05:18:47.921Z,86.32
2022-12-11T05:23:41.233Z,82.43
2022-12-11T05:28:37.001Z,89.38
2022-12-11T05:33:31.082Z,92.93
2022-12-11T05:38:24.057Z,75.72
2022-12-11T05:43:17.836Z,93.20
2022-12-11T05:48:11.790Z,96.93
2022-12-11T05:53:05.938Z,103.82
2022-12-11T05:57:59.926Z,102.50
2022-12-11T06:02:55.004Z,89.28
2022-12-11T06:07:48.780Z,79.00
2022-12-11T06:12:43.159Z,78.05
2022-12-11T06:17:37.522Z,70.43
2022-12-11T06:22:31.712Z,87.00
2022-12-11T06:27:26.084Z,86.13
2022-12-11T06:32:19.758Z,66.35
2022-12-11T06:37:12.737Z,50.97
2022-12-11T06:42:06.205Z,66.63
2022-12-11T06:47:00.229Z,64.60
2022-12-11T06:51:54.579Z,93.32
2022-12-11T06:56:48.122Z,65.93
2022-12-11T07:01:41.713Z,108.88
2022-12-11T07:06:35.746Z,84.82
2022-12-11T07:11:29.628Z,51.10
2022-12-11T07:16:23.523Z,51.08
2022-12-11T07:21:16.765Z,45.08
2022-12-11T07:26:12.575Z,26.80
2022-12-11T07:31:07.803Z,38.22
2022-12-11T07:36:07.196Z,45.60
2022-12-11T07:41:23.968Z,37.33
2022-12-11T07:46:23.249Z,39.00
2022-12-11T07:51:17.968Z,158.70
2022-12-11T07:56:11.804Z,30.50
2022-12-11T08:01:06.271Z,36.63
2022-12-11T08:06:00.029Z,24.02
2022-12-11T08:10:54.041Z,25.67
2022-12-11T08:15:47.798Z,38.80
2022-12-11T08:20:41.753Z,22.80
2022-12-11T08:25:37.282Z,25.98
2022-12-11T08:30:30.525Z,23.98
2022-12-11T08:35:24.529Z,22.45
2022-12-11T08:40:18.837Z,26.42
2022-12-11T08:45:13.520Z,27.10
2022-12-11T08:50:07.768Z,24.45
2022-12-11T08:55:01.569Z,23.70
2022-12-11T08:59:55.342Z,20.95
2022-12-11T09:04:49.497Z,26.42
2022-12-11T09:09:42.493Z,26.45
2022-12-11T09:14:36.107Z,18.38
2022-12-11T09:19:32.355Z,20.85
2022-12-11T09:24:26.152Z,20.67
2022-12-11T09:29:19.362Z,33.47
2022-12-11T09:34:13.058Z,54.78
2022-12-11T09:39:08.668Z,24.77
2022-12-11T09:44:41.367Z,27.75
2022-12-11T09:49:43.853Z,24.98
2022-12-11T09:54:37.025Z,18.70
2022-12-11T09:59:35.413Z,20.67
2022-12-11T10:04:56.751Z,18.60
2022-12-11T10:09:54.707Z,18.67
2022-12-11T10:15:13.252Z,20.33
2022-12-11T10:20:19.161Z,19.05
2022-12-11T10:25:55.517Z,15.85
2022-12-11T10:31:08.889Z,19.17
2022-12-11T10:36:01.997Z,15.13
2022-12-11T10:41:07.322Z,14.25
2022-12-11T10:46:17.766Z,14.63
2022-12-11T10:51:16.133Z,13.63
2022-12-11T10:56:09.790Z,96.97
2022-12-11T11:01:26.842Z,45.13
2022-12-11T11:06:59.901Z,13.73
2022-12-11T11:12:23.395Z,13.18
2022-12-11T11:17:17.533Z,15.63
2022-12-11T11:22:35.297Z,20.88
2022-12-11T11:27:47.426Z,13.90
2022-12-11T11:33:03.387Z,16.13
2022-12-11T11:38:37.435Z,18.83
2022-12-11T11:43:48.133Z,17.80
2022-12-11T11:48:41.649Z,17.55
2022-12-11T11:53:42.237Z,14.45
2022-12-11T11:59:02.847Z,15.05
2022-12-11T12:03:55.855Z,13.27
2022-12-11T12:09:03.972Z,14.98
2022-12-11T12:14:43.525Z,28.23
2022-12-11T12:19:56.127Z,14.68
2022-12-11T12:25:17.009Z,13.65
2022-12-11T12:30:18.776Z,12.27
2022-12-11T12:35:39.394Z,13.00
2022-12-11T12:40:56.718Z,11.63
2022-12-11T12:46:27.105Z,10.93
2022-12-11T12:51:21.373Z,10.68
2022-12-11T12:56:15.745Z,11.30
2022-12-11T13:01:11.781Z,11.65
2022-12-11T13:06:07.420Z,10.55
2022-12-11T13:11:06.907Z,11.45
2022-12-11T13:16:18.718Z,12.57
2022-12-11T13:21:34.720Z,11.45
2022-12-11T13:26:30.878Z,10.73
2022-12-11T13:31:23.527Z,12.27
2022-12-11T13:36:36.317Z,8.93
2022-12-11T13:41:29.549Z,12.55
2022-12-11T13:46:29.085Z,10.65
2022-12-11T13:51:24.380Z,10.82
2022-12-11T13:56:20.164Z,10.60
2022-12-11T14:01:26.134Z,9.27
2022-12-11T14:06:20.412Z,9.73
2022-12-11T14:11:23.146Z,8.65
2022-12-11T14:16:22.793Z,10.52
2022-12-11T14:21:22.962Z,9.00
2022-12-11T14:26:22.356Z,8.48
2022-12-11T14:31:19.599Z,7.13
2022-12-11T14:36:13.806Z,7.32
2022-12-11T14:41:27.364Z,7.88
2022-12-11T14:46:46.809Z,7.13
2022-12-11T14:51:41.528Z,9.63
2022-12-11T14:56:35.983Z,24.92
2022-12-11T15:01:30.737Z,8.43
2022-12-11T15:06:31.486Z,8.48
2022-12-11T15:11:26.026Z,42.08
2022-12-11T15:16:19.818Z,46.80
2022-12-11T15:21:14.170Z,71.20
2022-12-11T15:26:07.893Z,10.18
2022-12-11T15:31:07.000Z,14.88
2022-12-11T15:36:01.338Z,6.10
2022-12-11T15:40:56.314Z,7.50
2022-12-11T15:45:50.116Z,5.28
2022-12-11T15:50:43.826Z,5.13
2022-12-11T15:55:37.937Z,7.13
2022-12-11T16:00:32.072Z,6.25
2022-12-11T16:05:25.870Z,9.50
2022-12-11T16:10:20.273Z,4.72
2022-12-11T16:15:19.925Z,4.40
2022-12-11T16:20:16.873Z,5.78
2022-12-11T16:25:11.065Z,5.13
2022-12-11T16:30:05.578Z,4.85
2022-12-11T16:35:06.432Z,5.00
2022-12-11T16:40:01.679Z,4.75
2022-12-11T16:45:10.658Z,5.43
2022-12-11T16:50:04.369Z,4.70
2022-12-11T16:54:57.903Z,5.22
2022-12-11T16:59:51.607Z,10.15
2022-12-11T17:04:50.687Z,6.15
2022-12-11T17:09:47.837Z,6.32
2022-12-11T17:14:42.395Z,6.35
2022-12-11T17:19:37.303Z,8.23
2022-12-11T17:24:30.627Z,8.90
2022-12-11T17:29:24.695Z,10.68
2022-12-11T17:34:17.804Z,7.40
2022-12-11T17:39:11.214Z,6.82
2022-12-11T17:44:05.438Z,6.75
2022-12-11T17:49:00.199Z,10.30
2022-12-11T17:53:59.241Z,9.60
2022-12-11T17:58:53.372Z,9.20
2022-12-11T18:03:47.400Z,10.13
2022-12-11T18:08:45.438Z,8.45
2022-12-11T18:13:38.818Z,11.00
2022-12-11T18:18:31.593Z,8.48
2022-12-11T18:23:24.526Z,10.82
2022-12-11T18:28:18.590Z,11.40
2022-12-11T18:33:13.423Z,10.15
2022-12-11T18:38:08.953Z,14.18
2022-12-11T18:43:02.961Z,12.65
2022-12-11T18:47:57.030Z,10.80
2022-12-11T18:52:57.262Z,10.15
2022-12-11T18:57:50.596Z,9.40
2022-12-11T19:02:44.373Z,12.20
2022-12-11T19:07:38.091Z,16.67
2022-12-11T19:12:32.083Z,21.73
2022-12-11T19:17:26.081Z,20.02
2022-12-11T19:22:20.530Z,13.18
2022-12-11T19:27:14.140Z,13.55
2022-12-11T19:32:07.858Z,14.40
2022-12-11T19:37:02.170Z,20.80
2022-12-11T19:41:56.102Z,19.58
2022-12-11T19:46:49.196Z,12.95
2022-12-11T19:51:44.125Z,14.90
2022-12-11T19:56:37.780Z,19.17
2022-12-11T20:01:33.030Z,24.35
2022-12-11T20:06:28.966Z,17.08
2022-12-11T20:11:21.760Z,18.48
2022-12-11T20:16:16.823Z,15.48
2022-12-11T20:21:14.337Z,14.32
2022-12-11T20:26:15.951Z,15.27
2022-12-11T20:31:18.069Z,16.17
2022-12-11T20:36:17.070Z,18.38
2022-12-11T20:41:13.362Z,24.67
2022-12-11T20:46:15.595Z,16.08
2022-12-11T20:51:10.249Z,24.77
2022-12-11T20:56:11.833Z,26.88
2022-12-11T21:01:05.576Z,34.08
2022-12-11T21:05:59.080Z,50.17
2022-12-11T21:10:53.066Z,25.67
2022-12-11T21:15:46.638Z,23.75
2022-12-11T21:20:39.989Z,19.02
2022-12-11T21:25:33.909Z,16.85
2022-12-11T21:30:27.103Z,12.98
2022-12-11T21:35:20.514Z,17.58
2022-12-11T21:40:15.351Z,15.05
2022-12-11T21:50:23.230Z,18.02
2022-12-11T21:55:18.341Z,17.08
2022-12-11T22:00:13.418Z,19.92
2022-12-11T22:05:07.816Z,21.67
2022-12-11T22:10:00.914Z,21.05
2022-12-11T22:14:54.870Z,21.85
2022-12-11T22:19:48.714Z,21.92
2022-12-11T22:24:42.177Z,23.45
2022-12-11T22:29:36.658Z,21.20
2022-12-11T22:34:30.645Z,20.65
2022-12-11T22:39:25.845Z,21.08
2022-12-11T22:44:23.226Z,15.18
2022-12-11T22:49:17.146Z,24.15
2022-12-11T22:54:12.294Z,18.95
2022-12-11T22:59:07.658Z,20.65
2022-12-11T23:04:01.184Z,19.13
2022-12-11T23:08:55.088Z,17.55
2022-12-11T23:13:50.105Z,21.45
2022-12-11T23:18:43.746Z,22.05
2022-12-11T23:23:38.427Z,22.75
2022-12-11T23:28:34.493Z,20.15
2022-12-11T23:33:28.137Z,24.75
2022-12-11T23:38:21.445Z,20.85
2022-12-11T23:43:16.648Z,22.10
2022-12-11T23:48:12.206Z,24.10
2022-12-11T23:53:05.685Z,24.60
2022-12-11T23:57:58.785Z,21.25
